createdAt,value
2023-03-10T00:01:09.480Z,2.01
2023-03-10T00:03:09.444Z,2.01
2023-03-10T00:05:09.699Z,2.01
2023-03-10T00:07:09.515Z,2.01
2023-03-10T00:09:12.234Z,2.01
2023-03-10T00:11:09.262Z,2.01
2023-03-10T00:13:09.753Z,2.01
2023-03-10T00:15:09.389Z,2.01
2023-03-10T00:17:09.997Z,2.01
2023-03-10T00:19:09.429Z,2.01
2023-03-10T00:21:09.850Z,2.01
2023-03-10T00:23:09.013Z,2.01
2023-03-10T00:25:09.536Z,2.01
2023-03-10T00:27:09.013Z,2.01
2023-03-10T00:29:09.708Z,2.01
2023-03-10T00:31:09.336Z,2.01
2023-03-10T00:33:09.867Z,2.01
2023-03-10T00:35:09.971Z,2.01
2023-03-10T00:37:09.530Z,2.01
2023-03-10T00:39:11.810Z,2.01
2023-03-10T00:41:09.266Z,2.01
2023-03-10T00:43:09.789Z,2.01
2023-03-10T00:45:09.298Z,2.01
2023-03-10T00:47:10.127Z,2.01
2023-03-10T00:49:09.149Z,2.01
2023-03-10T00:51:09.841Z,2.01
2023-03-10T00:53:08.945Z,2.01
2023-03-10T00:55:09.315Z,2.01
2023-03-10T00:57:09.754Z,2.01
2023-03-10T00:59:09.106Z,2.01
2023-03-10T01:01:14.746Z,2.01
2023-03-10T01:03:09.938Z,2.01
2023-03-10T01:05:09.685Z,2.01
2023-03-10T01:07:09.664Z,2.01
2023-03-10T01:09:08.911Z,2.01
2023-03-10T01:11:09.581Z,2.01
2023-03-10T01:13:08.998Z,2.01
2023-03-10T01:15:09.520Z,2.01
2023-03-10T01:17:09.223Z,2.01
2023-03-10T01:19:09.588Z,2.01
2023-03-10T01:21:09.031Z,2.01
2023-03-10T01:23:09.318Z,2.01
2023-03-10T01:25:09.814Z,2.01
2023-03-10T01:27:09.360Z,2.01
2023-03-10T01:29:09.730Z,2.01
2023-03-10T01:31:09.208Z,2.01
2023-03-10T01:33:10.018Z,2.01
2023-03-10T01:35:09.368Z,2.01
2023-03-10T01:37:10.014Z,2.01
2023-03-10T01:39:09.228Z,2.01
2023-03-10T01:41:09.967Z,2.01
2023-03-10T01:43:09.261Z,2.01
2023-03-10T01:45:09.607Z,2.01
2023-03-10T01:47:09.854Z,2.01
2023-03-10T01:49:09.879Z,2.01
2023-03-10T01:51:09.315Z,2.01
2023-03-10T01:53:09.802Z,2.01
2023-03-10T01:55:09.192Z,2.01
2023-03-10T01:57:09.736Z,2.01
2023-03-10T01:59:09.101Z,2.01
2023-03-10T02:01:13.297Z,2.01
2023-03-10T02:03:09.972Z,2.01
2023-03-10T02:05:09.300Z,2.01
2023-03-10T02:07:09.651Z,2.01
2023-03-10T02:09:09.056Z,2.01
2023-03-10T02:11:09.825Z,2.01
2023-03-10T02:13:09.292Z,2.01
2023-03-10T02:15:09.688Z,2.01
2023-03-10T02:17:09.666Z,2.01
2023-03-10T02:19:09.038Z,2.01
2023-03-10T02:21:09.504Z,2.01
2023-03-10T02:23:08.922Z,2.01
2023-03-10T02:25:09.725Z,2.01
2023-03-10T02:27:09.170Z,2.01
2023-03-10T02:29:09.740Z,2.01
2023-03-10T02:31:09.345Z,2.01
2023-03-10T02:33:10.300Z,2.01
2023-03-10T02:35:09.678Z,2.01
2023-03-10T02:37:10.046Z,2.01
2023-03-10T02:39:09.192Z,2.01
2023-03-10T02:41:09.719Z,2.01
2023-03-10T02:43:09.211Z,2.01
2023-03-10T02:45:09.647Z,2.01
2023-03-10T02:47:09.355Z,2.01
2023-03-10T02:49:13.237Z,2.01
2023-03-10T02:51:09.275Z,2.01
2023-03-10T02:53:09.610Z,2.01
2023-03-10T02:55:09.130Z,2.01
2023-03-10T02:57:09.760Z,2.01
2023-03-10T02:59:09.238Z,2.01
2023-03-10T03:01:13.502Z,2.01
2023-03-10T03:03:09.087Z,2.01
2023-03-10T03:05:09.921Z,2.01
2023-03-10T03:07:09.085Z,2.01
2023-03-10T03:09:09.462Z,2.01
2023-03-10T03:11:09.003Z,2.01
2023-03-10T03:13:09.680Z,2.01
2023-03-10T03:15:08.947Z,2.01
2023-03-10T03:17:09.858Z,2.01
2023-03-10T03:19:09.887Z,2.01
2023-03-10T03:21:09.524Z,2.01
2023-03-10T03:23:09.681Z,2.01
2023-03-10T03:25:09.296Z,2.01
2023-03-10T03:27:09.902Z,2.01
2023-03-10T03:29:09.296Z,2.01
2023-03-10T03:31:09.850Z,2.01
2023-03-10T03:33:09.870Z,2.01
2023-03-10T03:35:09.945Z,2.01
2023-03-10T03:37:09.374Z,2.01
2023-03-10T03:39:09.810Z,2.01
2023-03-10T03:41:09.247Z,2.01
2023-03-10T03:43:09.666Z,2.01
2023-03-10T03:45:09.163Z,2.01
2023-03-10T03:47:09.408Z,2.01
2023-03-10T03:49:09.645Z,2.01
2023-03-10T03:51:09.689Z,2.01
2023-03-10T03:53:09.104Z,2.01
2023-03-10T03:55:09.840Z,2.01
2023-03-10T03:57:10.361Z,2.01
2023-03-10T03:59:09.649Z,2.01
2023-03-10T04:01:14.467Z,2.01
2023-03-10T04:03:09.800Z,2.01
2023-03-10T04:05:09.845Z,2.01
2023-03-10T04:07:09.165Z,2.01
2023-03-10T04:09:09.693Z,2.01
2023-03-10T04:11:09.387Z,2.01
2023-03-10T04:13:09.854Z,2.01
2023-03-10T04:15:08.982Z,2.01
2023-03-10T04:17:11.194Z,2.01
2023-03-10T04:19:09.138Z,2.01
2023-03-10T04:21:15.678Z,2.01
2023-03-10T04:23:09.388Z,2.01
2023-03-10T04:25:09.775Z,2.01
2023-03-10T04:27:09.331Z,2.01
2023-03-10T04:29:09.872Z,2.01
2023-03-10T04:31:09.672Z,2.01
2023-03-10T04:33:13.960Z,2.01
2023-03-10T04:35:09.344Z,2.01
2023-03-10T04:37:09.873Z,2.01
2023-03-10T04:39:09.047Z,2.01
2023-03-10T04:41:10.033Z,2.01
2023-03-10T04:43:09.118Z,2.01
2023-03-10T04:45:27.145Z,2.01
2023-03-10T04:47:09.525Z,2.01
2023-03-10T04:49:09.768Z,2.01
2023-03-10T04:51:09.347Z,2.01
2023-03-10T04:53:09.647Z,2.01
2023-03-10T04:55:09.273Z,2.01
2023-03-10T04:57:09.884Z,2.01
2023-03-10T04:59:09.357Z,2.01
2023-03-10T05:01:36.007Z,2.01
2023-03-10T05:03:09.455Z,2.01
2023-03-10T05:05:10.249Z,2.01
2023-03-10T05:07:08.975Z,2.01
2023-03-10T05:09:09.418Z,2.01
2023-03-10T05:11:09.211Z,2.01
2023-03-10T05:13:09.727Z,2.01
2023-03-10T05:15:09.193Z,2.01
2023-03-10T05:17:10.131Z,2.01
2023-03-10T05:19:09.296Z,2.01
2023-03-10T05:21:09.687Z,2.01
2023-03-10T05:23:09.149Z,2.01
2023-03-10T05:25:09.853Z,2.01
2023-03-10T05:27:09.321Z,2.01
2023-03-10T05:29:09.646Z,2.01
2023-03-10T05:31:09.532Z,2.01
2023-03-10T05:33:09.576Z,2.01
2023-03-10T05:35:09.237Z,2.01
2023-03-10T05:37:09.955Z,2.01
2023-03-10T05:39:09.241Z,2.01
2023-03-10T05:41:09.767Z,2.01
2023-03-10T05:43:09.066Z,2.01
2023-03-10T05:45:09.545Z,2.01
2023-03-10T05:47:09.865Z,2.01
2023-03-10T05:49:09.589Z,2.01
2023-03-10T05:51:08.875Z,2.01
2023-03-10T05:53:09.487Z,2.01
2023-03-10T05:55:09.326Z,2.01
2023-03-10T05:57:11.575Z,2.01
2023-03-10T05:59:09.175Z,2.01
2023-03-10T06:01:14.091Z,2.01
2023-03-10T06:03:10.080Z,2.01
2023-03-10T06:05:11.307Z,2.01
2023-03-10T06:07:09.838Z,2.01
2023-03-10T06:09:09.392Z,2.01
2023-03-10T06:11:09.623Z,2.01
2023-03-10T06:13:08.999Z,2.01
2023-03-10T06:15:09.508Z,2.01
2023-03-10T06:17:09.881Z,2.01
2023-03-10T06:19:09.887Z,2.01
2023-03-10T06:21:09.110Z,2.01
2023-03-10T06:23:09.815Z,2.01
2023-03-10T06:25:09.256Z,2.01
2023-03-10T06:27:09.660Z,2.01
2023-03-10T06:29:09.084Z,2.01
2023-03-10T06:31:09.674Z,2.01
2023-03-10T06:33:09.934Z,2.01
2023-03-10T06:35:12.303Z,2.01
2023-03-10T06:37:09.441Z,2.01
2023-03-10T06:39:09.678Z,2.01
2023-03-10T06:41:09.414Z,2.01
2023-03-10T06:43:09.617Z,2.01
2023-03-10T06:45:11.801Z,2.01
2023-03-10T06:47:09.938Z,2.01
2023-03-10T06:49:09.207Z,2.01
2023-03-10T06:51:09.551Z,2.01
2023-03-10T06:53:09.005Z,2.01
2023-03-10T06:55:09.626Z,2.01
2023-03-10T06:57:09.023Z,2.01
2023-03-10T06:59:09.291Z,2.01
2023-03-10T07:01:13.906Z,2.01
2023-03-10T07:03:09.344Z,2.01
2023-03-10T07:05:10.435Z,2.01
2023-03-10T07:07:09.304Z,2.01
2023-03-10T07:09:09.681Z,2.01
2023-03-10T07:11:09.298Z,2.01
2023-03-10T07:13:09.500Z,2.01
2023-03-10T07:15:09.842Z,2.01
2023-03-10T07:17:09.720Z,2.01
2023-03-10T07:19:09.658Z,2.01
2023-03-10T07:21:09.226Z,2.01
2023-03-10T07:23:09.443Z,2.01
2023-03-10T07:25:09.721Z,2.01
2023-03-10T07:27:09.803Z,2.01
2023-03-10T07:29:09.171Z,2.01
2023-03-10T07:31:10.179Z,2.01
2023-03-10T07:33:09.543Z,2.01
2023-03-10T07:35:09.396Z,2.01
2023-03-10T07:37:09.116Z,2.01
2023-03-10T07:39:09.449Z,2.01
2023-03-10T07:41:12.798Z,2.01
2023-03-10T07:43:09.299Z,2.01
2023-03-10T07:45:09.681Z,2.01
2023-03-10T07:47:09.685Z,2.01
2023-03-10T07:49:09.730Z,2.01
2023-03-10T07:51:09.291Z,2.01
2023-03-10T07:53:09.864Z,2.01
2023-03-10T07:55:09.289Z,2.01
2023-03-10T07:57:11.980Z,2.01
2023-03-10T07:59:09.570Z,2.01
2023-03-10T08:01:14.444Z,2.01
2023-03-10T08:03:09.646Z,2.01
2023-03-10T08:05:10.785Z,2.01
2023-03-10T08:07:09.591Z,2.01
2023-03-10T08:09:09.837Z,2.01
2023-03-10T08:11:09.419Z,2.01
2023-03-10T08:13:09.746Z,2.01
2023-03-10T08:15:09.403Z,2.01
2023-03-10T08:17:10.598Z,2.01
2023-03-10T08:19:09.315Z,2.01
2023-03-10T08:21:09.765Z,2.01
2023-03-10T08:23:09.247Z,2.01
2023-03-10T08:25:09.655Z,2.01
2023-03-10T08:27:09.449Z,2.01
2023-03-10T08:29:09.988Z,2.01
2023-03-10T08:31:26.152Z,2.01
2023-03-10T08:33:10.651Z,2.01
2023-03-10T08:35:09.056Z,2.01
2023-03-10T08:37:10.382Z,2.01
2023-03-10T08:39:08.995Z,2.01
2023-03-10T08:41:09.640Z,2.01
2023-03-10T08:43:11.282Z,2.01
2023-03-10T08:45:09.773Z,2.01
2023-03-10T08:47:09.835Z,2.01
2023-03-10T08:49:09.383Z,2.01
2023-03-10T08:51:09.156Z,2.01
2023-03-10T08:53:09.383Z,2.01
2023-03-10T08:55:11.283Z,2.01
2023-03-10T08:57:09.504Z,2.01
2023-03-10T08:59:08.930Z,2.01
2023-03-10T09:01:14.863Z,2.01
2023-03-10T09:03:10.131Z,2.01
2023-03-10T09:05:09.095Z,2.01
2023-03-10T09:07:09.476Z,2.01
2023-03-10T09:09:12.168Z,2.01
2023-03-10T09:11:09.519Z,2.01
2023-03-10T09:13:25.810Z,2.01
2023-03-10T09:15:12.788Z,2.01
2023-03-10T09:17:11.852Z,2.01
2023-03-10T09:19:09.405Z,2.01
2023-03-10T09:21:09.192Z,2.01
2023-03-10T09:23:09.521Z,2.01
2023-03-10T09:25:11.965Z,2.01
2023-03-10T09:27:09.377Z,2.01
2023-03-10T09:29:08.918Z,2.01
2023-03-10T09:31:10.090Z,2.01
2023-03-10T09:33:10.871Z,2.01
2023-03-10T09:35:09.364Z,2.01
2023-03-10T09:37:18.722Z,2.01
2023-03-10T09:39:09.428Z,2.01
2023-03-10T09:41:12.271Z,2.01
2023-03-10T09:43:22.310Z,2.01
2023-03-10T09:45:08.973Z,2.01
2023-03-10T09:47:09.698Z,2.01
2023-03-10T09:49:12.373Z,2.01
2023-03-10T09:51:09.749Z,2.01
2023-03-10T09:53:08.952Z,2.01
2023-03-10T09:55:11.212Z,2.01
2023-03-10T09:57:09.064Z,2.01
2023-03-10T09:59:11.820Z,2.01
2023-03-10T10:01:13.718Z,2.01
2023-03-10T10:03:09.940Z,2.01
2023-03-10T10:05:10.020Z,2.01
2023-03-10T10:07:13.394Z,2.01
2023-03-10T10:09:26.622Z,2.01
2023-03-10T10:11:09.788Z,2.01
2023-03-10T10:13:09.098Z,2.01
2023-03-10T10:15:33.525Z,2.01
2023-03-10T10:17:35.476Z,2.01
2023-03-10T10:19:26.266Z,2.01
2023-03-10T10:21:10.543Z,2.01
2023-03-10T10:23:09.641Z,2.01
2023-03-10T10:25:08.948Z,2.01
2023-03-10T10:27:10.395Z,2.01
2023-03-10T10:29:13.049Z,2.01
2023-03-10T10:31:12.259Z,2.01
2023-03-10T10:33:10.484Z,2.01
2023-03-10T10:35:12.758Z,2.01
2023-03-10T10:37:09.974Z,2.01
2023-03-10T10:39:09.590Z,2.01
2023-03-10T10:41:08.943Z,2.01
2023-03-10T10:43:09.775Z,2.01
2023-03-10T10:45:09.098Z,2.01
2023-03-10T10:47:10.117Z,2.01
2023-03-10T10:49:09.142Z,2.01
2023-03-10T10:51:09.792Z,2.01
2023-03-10T10:53:09.227Z,2.01
2023-03-10T10:55:09.567Z,2.01
2023-03-10T10:57:09.179Z,2.01
2023-03-10T10:59:09.719Z,2.01
2023-03-10T11:01:13.078Z,2.01
2023-03-10T11:03:10.254Z,2.01
2023-03-10T11:05:08.967Z,2.01
2023-03-10T11:07:09.614Z,2.01
2023-03-10T11:09:09.340Z,2.01
2023-03-10T11:11:09.513Z,2.01
2023-03-10T11:13:09.144Z,2.01
2023-03-10T11:15:09.599Z,2.01
2023-03-10T11:17:09.155Z,2.01
2023-03-10T11:19:09.510Z,2.01
2023-03-10T11:21:09.156Z,2.01
2023-03-10T11:23:09.633Z,2.01
2023-03-10T11:25:11.074Z,2.01
2023-03-10T11:27:09.595Z,2.01
2023-03-10T11:29:09.373Z,2.01
2023-03-10T11:31:11.396Z,2.01
2023-03-10T11:33:09.484Z,2.01
2023-03-10T11:35:09.786Z,2.01
2023-03-10T11:37:23.523Z,2.01
2023-03-10T11:39:09.495Z,2.01
2023-03-10T11:41:09.203Z,2.01
2023-03-10T11:43:11.451Z,2.01
2023-03-10T11:45:09.163Z,2.01
2023-03-10T11:47:10.151Z,2.01
2023-03-10T11:49:09.195Z,2.01
2023-03-10T11:51:09.812Z,2.01
2023-03-10T11:53:09.047Z,2.01
2023-03-10T11:55:12.121Z,2.01
2023-03-10T11:57:09.315Z,2.01
2023-03-10T11:59:10.135Z,2.01
2023-03-10T12:01:11.330Z,2.01
2023-03-10T12:03:09.743Z,2.01
2023-03-10T12:05:10.352Z,2.01
2023-03-10T12:07:11.923Z,2.01
2023-03-10T12:09:09.748Z,2.01
2023-03-10T12:11:09.245Z,0.31
2023-03-10T12:13:11.217Z,0.31
2023-03-10T12:15:09.051Z,0.31
2023-03-10T12:17:09.813Z,8.56
2023-03-10T12:19:12.168Z,8.56
2023-03-10T12:21:09.700Z,8.56
2023-03-10T12:23:09.792Z,0.04
2023-03-10T12:25:11.162Z,0.04
2023-03-10T12:27:09.841Z,0.04
2023-03-10T12:29:09.233Z,0.04
2023-03-10T12:31:11.170Z,0.04
2023-03-10T12:33:10.385Z,0.04
2023-03-10T12:35:09.877Z,0.04
2023-03-10T12:37:12.883Z,0.04
2023-03-10T12:39:09.690Z,0.04
2023-03-10T12:41:09.351Z,0.04
2023-03-10T12:43:11.353Z,0.04
2023-03-10T12:45:09.538Z,0.04
2023-03-10T12:47:09.407Z,0.04
2023-03-10T12:49:09.521Z,0.04
2023-03-10T12:51:08.994Z,0.04
2023-03-10T12:53:09.330Z,0.04
2023-03-10T12:55:08.930Z,0.04
2023-03-10T12:57:09.551Z,0.04
2023-03-10T12:59:08.881Z,0.04
2023-03-10T13:01:13.419Z,0.04
2023-03-10T13:03:09.778Z,0.04
2023-03-10T13:05:09.325Z,0.04
2023-03-10T13:07:09.641Z,0.04
2023-03-10T13:09:10.481Z,0.04
2023-03-10T13:11:09.900Z,0.04
2023-03-10T13:13:09.361Z,0.04
2023-03-10T13:15:09.853Z,0.04
2023-03-10T13:17:09.324Z,0.04
2023-03-10T13:19:09.511Z,0.04
2023-03-10T13:21:09.261Z,0.04
2023-03-10T13:23:09.619Z,0.04
2023-03-10T13:25:08.964Z,0.04
2023-03-10T13:27:09.709Z,0.04
2023-03-10T13:29:09.217Z,0.04
2023-03-10T13:31:09.614Z,0.07
2023-03-10T13:33:09.919Z,0.07
2023-03-10T13:35:10.022Z,0.07
2023-03-10T13:37:09.386Z,3.51
2023-03-10T13:39:08.823Z,3.51
2023-03-10T13:41:09.577Z,3.51
2023-03-10T13:43:19.093Z,3.51
2023-03-10T13:45:09.461Z,3.51
2023-03-10T13:47:09.526Z,3.51
2023-03-10T13:49:09.008Z,3.51
2023-03-10T13:51:09.421Z,3.51
2023-03-10T13:53:09.666Z,3.51
2023-03-10T13:55:09.227Z,3.51
2023-03-10T13:57:09.839Z,3.51
2023-03-10T13:59:09.113Z,3.51
2023-03-10T14:01:12.811Z,3.51
2023-03-10T14:03:09.714Z,3.51
2023-03-10T14:05:09.081Z,3.51
2023-03-10T14:07:09.522Z,3.51
2023-03-10T14:09:08.924Z,3.51
2023-03-10T14:11:09.718Z,3.51
2023-03-10T14:13:09.315Z,3.51
2023-03-10T14:15:09.544Z,3.51
2023-03-10T14:17:10.288Z,3.51
2023-03-10T14:19:09.295Z,3.51
2023-03-10T14:21:08.969Z,3.51
2023-03-10T14:23:09.965Z,3.51
2023-03-10T14:25:09.741Z,3.51
2023-03-10T14:27:09.795Z,3.51
2023-03-10T14:29:09.042Z,3.51
2023-03-10T14:31:10.116Z,3.51
2023-03-10T14:33:09.970Z,3.51
2023-03-10T14:35:09.812Z,3.51
2023-03-10T14:37:09.530Z,3.51
2023-03-10T14:39:09.750Z,3.51
2023-03-10T14:41:09.322Z,3.51
2023-03-10T14:43:09.776Z,3.51
2023-03-10T14:45:09.039Z,3.51
2023-03-10T14:47:11.586Z,3.51
2023-03-10T14:49:09.723Z,3.51
2023-03-10T14:51:09.432Z,3.51
2023-03-10T14:53:08.901Z,3.51
2023-03-10T14:55:09.356Z,3.51
2023-03-10T14:57:09.926Z,3.51
2023-03-10T14:59:09.450Z,3.51
2023-03-10T15:01:14.231Z,3.51
2023-03-10T15:03:09.193Z,3.51
2023-03-10T15:05:10.033Z,3.51
2023-03-10T15:07:08.948Z,3.51
2023-03-10T15:09:15.765Z,3.51
2023-03-10T15:11:34.385Z,3.51
2023-03-10T15:13:09.615Z,3.51
2023-03-10T15:15:09.016Z,3.51
2023-03-10T15:17:09.848Z,3.51
2023-03-10T15:19:09.131Z,3.51
2023-03-10T15:21:09.550Z,3.51
2023-03-10T15:23:09.824Z,3.51
2023-03-10T15:25:09.477Z,3.51
2023-03-10T15:27:10.056Z,3.51
2023-03-10T15:29:11.070Z,3.51
2023-03-10T15:31:09.053Z,3.51
2023-03-10T15:33:09.908Z,3.51
2023-03-10T15:35:08.981Z,3.51
2023-03-10T15:37:09.564Z,3.51
2023-03-10T15:39:12.500Z,3.51
2023-03-10T15:41:09.407Z,3.51
2023-03-10T15:43:09.958Z,9.44
2023-03-10T15:45:09.455Z,9.44
2023-03-10T15:47:10.407Z,9.44
2023-03-10T15:49:09.060Z,0.04
2023-03-10T15:51:09.914Z,0.04
2023-03-10T15:53:08.941Z,0.04
2023-03-10T15:55:09.489Z,0.02
2023-03-10T15:57:09.858Z,0.02
2023-03-10T15:59:09.366Z,0.02
2023-03-10T16:01:13.202Z,0.02
2023-03-10T16:03:09.530Z,0.02
2023-03-10T16:05:10.135Z,0.02
2023-03-10T16:07:09.107Z,0.01
2023-03-10T16:09:09.737Z,0.01
2023-03-10T16:11:09.300Z,0.01
2023-03-10T16:13:09.728Z,1.05
2023-03-10T16:15:09.243Z,1.05
2023-03-10T16:17:10.334Z,1.05
2023-03-10T16:19:09.522Z,1.05
2023-03-10T16:21:10.129Z,1.05
2023-03-10T16:23:09.181Z,1.05
2023-03-10T16:25:09.881Z,1.05
2023-03-10T16:27:09.297Z,1.05
2023-03-10T16:29:09.798Z,1.05
2023-03-10T16:31:09.854Z,1.05
2023-03-10T16:33:10.504Z,1.05
2023-03-10T16:35:09.316Z,1.05
2023-03-10T16:37:10.020Z,1.05
2023-03-10T16:39:09.375Z,1.05
2023-03-10T16:41:09.845Z,1.05
2023-03-10T16:43:09.177Z,1.05
2023-03-10T16:45:09.582Z,1.05
2023-03-10T16:47:09.428Z,1.05
2023-03-10T16:49:09.337Z,1.05
2023-03-10T16:51:09.155Z,1.05
2023-03-10T16:53:09.511Z,1.05
2023-03-10T16:55:09.943Z,1.05
2023-03-10T16:57:09.098Z,1.05
2023-03-10T16:59:09.586Z,1.05
2023-03-10T17:01:14.045Z,1.05
2023-03-10T17:03:09.808Z,1.05
2023-03-10T17:05:09.249Z,1.05
2023-03-10T17:07:09.757Z,1.05
2023-03-10T17:09:09.161Z,1.05
2023-03-10T17:11:09.877Z,1.05
2023-03-10T17:13:09.206Z,1.05
2023-03-10T17:15:09.631Z,1.05
2023-03-10T17:17:09.301Z,1.05
2023-03-10T17:19:09.311Z,1.05
2023-03-10T17:21:10.077Z,1.05
2023-03-10T17:23:12.312Z,1.05
2023-03-10T17:25:09.841Z,1.05
2023-03-10T17:27:09.186Z,1.05
2023-03-10T17:29:09.572Z,1.05
2023-03-10T17:31:09.403Z,1.05
2023-03-10T17:33:10.144Z,1.05
2023-03-10T17:35:09.018Z,1.05
2023-03-10T17:37:09.520Z,1.05
2023-03-10T17:39:08.966Z,1.05
2023-03-10T17:41:09.448Z,1.05
2023-03-10T17:43:33.521Z,1.05
2023-03-10T17:45:09.940Z,1.05
2023-03-10T17:47:09.497Z,1.05
2023-03-10T17:49:09.591Z,1.05
2023-03-10T17:51:09.515Z,1.05
2023-03-10T17:53:10.327Z,1.05
2023-03-10T17:55:09.598Z,1.05
2023-03-10T17:57:09.915Z,1.05
2023-03-10T17:59:09.318Z,1.05
2023-03-10T18:01:15.529Z,1.05
2023-03-10T18:03:10.543Z,1.05
2023-03-10T18:05:09.582Z,1.05
2023-03-10T18:07:09.307Z,1.05
2023-03-10T18:09:09.623Z,1.05
2023-03-10T18:11:09.798Z,1.05
2023-03-10T18:13:08.961Z,1.05
2023-03-10T18:15:11.845Z,1.05
2023-03-10T18:17:09.277Z,1.05
2023-03-10T18:19:10.910Z,1.05
2023-03-10T18:21:09.234Z,1.05
2023-03-10T18:23:09.634Z,1.05
2023-03-10T18:25:09.141Z,1.05
2023-03-10T18:27:09.392Z,1.05
2023-03-10T18:29:09.851Z,1.05
2023-03-10T18:31:09.686Z,1.05
2023-03-10T18:33:11.440Z,1.05
2023-03-10T18:35:09.312Z,1.05
2023-03-10T18:37:10.372Z,1.05
2023-03-10T18:39:09.407Z,1.05
2023-03-10T18:41:09.919Z,1.05
2023-03-10T18:43:09.547Z,1.05
2023-03-10T18:45:09.187Z,1.05
2023-03-10T18:47:09.900Z,1.05
2023-03-10T18:49:09.803Z,1.05
2023-03-10T18:51:09.406Z,1.05
2023-03-10T18:53:09.841Z,1.05
2023-03-10T18:55:09.026Z,1.05
2023-03-10T18:57:09.545Z,1.05
2023-03-10T18:59:08.969Z,1.05
2023-03-10T19:01:13.062Z,1.05
2023-03-10T19:03:10.286Z,1.05
2023-03-10T19:05:09.234Z,1.05
2023-03-10T19:07:09.737Z,1.05
2023-03-10T19:09:09.179Z,1.05
2023-03-10T19:11:09.698Z,1.05
2023-03-10T19:13:09.154Z,1.05
2023-03-10T19:15:09.692Z,1.05
2023-03-10T19:17:09.236Z,1.05
2023-03-10T19:19:09.505Z,1.05
2023-03-10T19:21:09.932Z,1.05
2023-03-10T19:23:09.282Z,1.05
2023-03-10T19:25:09.671Z,1.05
2023-03-10T19:27:09.142Z,1.05
2023-03-10T19:29:09.704Z,1.05
2023-03-10T19:31:09.533Z,1.05
2023-03-10T19:33:10.169Z,1.05
2023-03-10T19:35:09.265Z,1.05
2023-03-10T19:37:10.384Z,1.05
2023-03-10T19:39:09.408Z,1.05
2023-03-10T19:41:09.876Z,1.05
2023-03-10T19:43:09.258Z,1.05
2023-03-10T19:45:09.819Z,1.05
2023-03-10T19:47:09.626Z,1.05
2023-03-10T19:49:09.733Z,1.05
2023-03-10T19:51:09.178Z,1.05
2023-03-10T19:53:09.743Z,1.05
2023-03-10T19:55:09.067Z,1.05
2023-03-10T19:57:09.728Z,1.05
2023-03-10T19:59:09.391Z,1.05
2023-03-10T20:01:13.709Z,1.05
2023-03-10T20:03:09.642Z,1.05
2023-03-10T20:05:08.822Z,1.05
2023-03-10T20:07:09.555Z,1.05
2023-03-10T20:09:09.066Z,1.05
2023-03-10T20:11:09.729Z,1.05
2023-03-10T20:13:08.945Z,1.05
2023-03-10T20:15:09.659Z,1.05
2023-03-10T20:17:09.973Z,1.05
2023-03-10T20:19:09.583Z,1.05
2023-03-10T20:21:09.422Z,1.05
2023-03-10T20:23:09.854Z,1.05
2023-03-10T20:25:09.279Z,1.05
2023-03-10T20:27:09.899Z,1.05
2023-03-10T20:29:10.441Z,1.05
2023-03-10T20:31:09.663Z,1.05
2023-03-10T20:33:09.650Z,1.05
2023-03-10T20:35:09.584Z,1.05
2023-03-10T20:37:09.401Z,1.05
2023-03-10T20:39:09.844Z,1.05
2023-03-10T20:41:09.137Z,1.05
2023-03-10T20:43:09.692Z,1.05
2023-03-10T20:45:09.089Z,1.05
2023-03-10T20:47:09.767Z,1.05
2023-03-10T20:49:09.165Z,1.05
2023-03-10T20:51:09.755Z,1.05
2023-03-10T20:53:09.245Z,1.05
2023-03-10T20:55:09.673Z,1.05
2023-03-10T20:57:09.058Z,1.05
2023-03-10T20:59:09.526Z,1.05
2023-03-10T21:01:13.209Z,1.05
2023-03-10T21:03:09.619Z,1.05
2023-03-10T21:05:13.179Z,1.05
2023-03-10T21:07:09.823Z,1.05
2023-03-10T21:09:09.166Z,1.05
2023-03-10T21:11:11.987Z,1.05
2023-03-10T21:13:09.263Z,1.05
2023-03-10T21:15:09.942Z,1.05
2023-03-10T21:17:09.659Z,1.05
2023-03-10T21:19:08.795Z,1.05
2023-03-10T21:21:09.771Z,1.05
2023-03-10T21:23:11.185Z,1.05
2023-03-10T21:25:09.386Z,1.05
2023-03-10T21:27:09.821Z,1.05
2023-03-10T21:29:09.387Z,1.05
2023-03-10T21:31:09.533Z,1.05
2023-03-10T21:33:12.210Z,1.05
2023-03-10T21:35:09.097Z,1.05
2023-03-10T21:37:09.583Z,1.05
2023-03-10T21:39:09.229Z,1.05
2023-03-10T21:41:09.605Z,1.05
2023-03-10T21:43:09.085Z,1.05
2023-03-10T21:45:09.762Z,1.05
2023-03-10T21:47:09.574Z,1.05
2023-03-10T21:49:09.643Z,1.05
2023-03-10T21:51:09.281Z,1.05
2023-03-10T21:53:10.187Z,1.05
2023-03-10T21:55:09.569Z,1.05
2023-03-10T21:57:09.815Z,1.05
2023-03-10T21:59:09.492Z,1.05
2023-03-10T22:01:09.357Z,1.05
2023-03-10T22:03:09.567Z,1.05
2023-03-10T22:05:09.531Z,1.05
2023-03-10T22:07:09.574Z,1.05
2023-03-10T22:09:09.027Z,1.05
2023-03-10T22:11:09.647Z,1.05
2023-03-10T22:13:09.127Z,1.05
2023-03-10T22:15:09.817Z,1.05
2023-03-10T22:17:09.434Z,1.05
2023-03-10T22:19:09.729Z,1.05
2023-03-10T22:21:09.428Z,1.05
2023-03-10T22:23:09.744Z,1.05
2023-03-10T22:25:10.387Z,1.05
2023-03-10T22:27:09.704Z,1.05
2023-03-10T22:29:09.280Z,1.05
2023-03-10T22:31:09.887Z,1.05
2023-03-10T22:33:09.320Z,1.05
2023-03-10T22:35:09.827Z,1.05
2023-03-10T22:37:09.505Z,1.05
2023-03-10T22:39:09.619Z,1.05
2023-03-10T22:41:08.964Z,1.05
2023-03-10T22:43:09.529Z,1.05
2023-03-10T22:45:09.025Z,1.05
2023-03-10T22:47:10.135Z,1.05
2023-03-10T22:49:09.691Z,1.05
2023-03-10T22:51:09.513Z,1.05
2023-03-10T22:53:09.123Z,1.05
2023-03-10T22:55:09.521Z,1.05
2023-03-10T22:57:09.029Z,1.05
2023-03-10T22:59:09.747Z,1.05
2023-03-10T23:01:09.506Z,1.05
2023-03-10T23:03:09.864Z,1.05
2023-03-10T23:05:09.256Z,1.05
2023-03-10T23:07:09.675Z,1.05
2023-03-10T23:09:10.817Z,1.05
2023-03-10T23:11:09.843Z,1.05
2023-03-10T23:13:09.253Z,1.05
2023-03-10T23:15:22.423Z,1.05
2023-03-10T23:17:09.631Z,1.05
2023-03-10T23:19:09.652Z,1.05
2023-03-10T23:21:09.434Z,1.05
2023-03-10T23:23:09.973Z,1.05
2023-03-10T23:25:09.117Z,1.05
2023-03-10T23:27:09.690Z,1.05
2023-03-10T23:29:09.174Z,1.05
2023-03-10T23:31:09.852Z,1.05
2023-03-10T23:33:09.394Z,1.05
2023-03-10T23:35:09.579Z,1.05
2023-03-10T23:37:09.353Z,1.05
2023-03-10T23:39:09.457Z,1.05
2023-03-10T23:41:09.250Z,1.05
2023-03-10T23:43:09.815Z,1.05
2023-03-10T23:45:09.335Z,1.05
2023-03-10T23:47:09.768Z,1.05
2023-03-10T23:49:09.219Z,1.05
2023-03-10T23:51:09.913Z,1.05
2023-03-10T23:53:09.453Z,1.05
2023-03-10T23:55:09.884Z,1.05
2023-03-10T23:57:09.361Z,1.05
2023-03-10T23:59:10.062Z,1.05
